Time;durP1;ratioP1;P1;durP2;ratioP2;P2;SDS_P1;SDS_P2;PMS_P1;PMS_P2;Temp;Humidity;BMP_temperature;BMP_pressure;BME280_temperature;BME280_humidity;BME280_pressure;Samples;Min_cycle;Max_cycle;Signal;HPM_P1;HPM_P2
2020/11/15 00:01:47;;;;;;;4.21;3.81;;;;;;;20.39;57.32;100508.56;;;;-56
2020/11/15 00:04:47;;;;;;;4.47;3.63;;;;;;;20.38;57.27;100511.27;;;;-55
2020/11/15 00:07:47;;;;;;;4.11;3.71;;;;;;;20.36;57.30;100511.42;;;;-55
2020/11/15 00:10:46;;;;;;;4.30;3.77;;;;;;;20.35;57.31;100514.41;;;;-56
2020/11/15 00:13:46;;;;;;;4.63;3.59;;;;;;;20.34;57.28;100510.67;;;;-55
2020/11/15 00:16:47;;;;;;;3.89;3.54;;;;;;;20.33;57.27;100512.62;;;;-55
2020/11/15 00:19:46;;;;;;;4.35;3.51;;;;;;;20.32;57.33;100511.81;;;;-55
2020/11/15 00:22:47;;;;;;;3.88;3.49;;;;;;;20.31;57.35;100509.77;;;;-55
2020/11/15 00:25:47;;;;;;;4.11;3.65;;;;;;;20.29;57.32;100506.41;;;;-55
2020/11/15 00:28:47;;;;;;;3.90;3.59;;;;;;;20.28;57.30;100507.31;;;;-56
2020/11/15 00:31:47;;;;;;;3.74;3.44;;;;;;;20.27;57.31;100504.70;;;;-56
2020/11/15 00:34:46;;;;;;;3.83;3.51;;;;;;;20.26;57.26;100497.38;;;;-56
2020/11/15 00:37:46;;;;;;;4.57;3.53;;;;;;;20.24;57.26;100496.88;;;;-56
2020/11/15 00:40:47;;;;;;;3.88;3.57;;;;;;;20.24;57.30;100489.56;;;;-55
2020/11/15 00:43:46;;;;;;;4.15;3.73;;;;;;;20.22;57.32;100488.98;;;;-55
2020/11/15 00:46:47;;;;;;;4.05;3.65;;;;;;;20.21;57.30;100484.84;;;;-55
2020/11/15 00:49:46;;;;;;;4.01;3.61;;;;;;;20.21;57.36;100486.69;;;;-56
2020/11/15 00:52:46;;;;;;;3.81;3.51;;;;;;;20.20;57.27;100484.98;;;;-55
2020/11/15 00:55:47;;;;;;;3.95;3.65;;;;;;;20.19;57.29;100477.88;;;;-56
2020/11/15 00:58:47;;;;;;;4.09;3.69;;;;;;;20.17;57.27;100478.86;;;;-56
2020/11/15 01:01:46;;;;;;;4.06;3.46;;;;;;;20.16;57.31;100468.45;;;;-56
2020/11/15 01:04:46;;;;;;;3.73;3.43;;;;;;;20.15;57.31;100469.81;;;;-55
2020/11/15 01:07:46;;;;;;;3.88;3.54;;;;;;;20.14;57.28;100469.18;;;;-55
2020/11/15 01:10:46;;;;;;;3.92;3.55;;;;;;;20.13;57.31;100465.77;;;;-55
2020/11/15 01:13:46;;;;;;;4.09;3.50;;;;;;;20.12;57.28;100464.52;;;;-56
2020/11/15 01:16:46;;;;;;;4.20;3.80;;;;;;;20.11;57.35;100454.78;;;;-56
2020/11/15 01:19:47;;;;;;;3.91;3.51;;;;;;;20.09;57.30;100450.45;;;;-55
2020/11/15 01:22:47;;;;;;;3.74;3.44;;;;;;;20.09;57.28;100445.16;;;;-56
2020/11/15 01:25:46;;;;;;;3.73;3.43;;;;;;;20.08;57.32;100442.95;;;;-55
2020/11/15 01:28:47;;;;;;;3.91;3.49;;;;;;;20.07;57.36;100440.04;;;;-56
2020/11/15 01:31:47;;;;;;;4.06;3.67;;;;;;;20.05;57.35;100443.84;;;;-55
2020/11/15 01:34:46;;;;;;;3.74;3.37;;;;;;;20.06;57.33;100450.02;;;;-56
2020/11/15 01:37:46;;;;;;;3.70;3.40;;;;;;;20.04;57.41;100451.72;;;;-56
2020/11/15 01:40:47;;;;;;;3.97;3.57;;;;;;;20.02;57.35;100446.34;;;;-55
2020/11/15 01:43:46;;;;;;;4.03;3.65;;;;;;;20.03;57.36;100450.27;;;;-55
2020/11/15 01:46:46;;;;;;;4.02;3.62;;;;;;;20.01;57.44;100445.05;;;;-56
2020/11/15 01:49:46;;;;;;;3.49;3.19;;;;;;;20.01;57.35;100443.02;;;;-57
2020/11/15 01:52:47;;;;;;;4.00;3.60;;;;;;;20.00;57.37;100431.05;;;;-54
2020/11/15 01:55:46;;;;;;;3.66;3.36;;;;;;;19.99;57.40;100421.62;;;;-55
2020/11/15 01:58:46;;;;;;;3.73;3.40;;;;;;;19.97;57.40;100413.72;;;;-55
2020/11/15 02:01:46;;;;;;;3.85;3.55;;;;;;;19.96;57.36;100412.23;;;;-54
2020/11/15 02:04:46;;;;;;;3.58;3.28;;;;;;;19.95;57.41;100414.44;;;;-55
2020/11/15 02:07:46;;;;;;;5.43;3.51;;;;;;;19.95;57.47;100410.22;;;;-55
2020/11/15 02:10:47;;;;;;;3.60;3.30;;;;;;;19.94;57.42;100410.14;;;;-56
2020/11/15 02:13:46;;;;;;;3.88;3.51;;;;;;;19.94;57.41;100404.99;;;;-55
2020/11/15 02:16:46;;;;;;;3.67;3.36;;;;;;;19.93;57.46;100403.87;;;;-56
2020/11/15 02:19:47;;;;;;;3.64;3.34;;;;;;;19.92;57.39;100402.95;;;;-56
2020/11/15 02:22:46;;;;;;;3.74;3.43;;;;;;;19.92;57.50;100404.34;;;;-55
2020/11/15 02:25:46;;;;;;;3.48;3.17;;;;;;;19.92;57.41;100413.28;;;;-56
2020/11/15 02:28:46;;;;;;;4.17;3.67;;;;;;;19.89;57.41;100407.91;;;;-56
2020/11/15 02:31:46;;;;;;;3.92;3.52;;;;;;;19.89;57.49;100408.08;;;;-55
2020/11/15 02:34:46;;;;;;;3.58;3.24;;;;;;;19.87;57.44;100406.59;;;;-55
2020/11/15 02:37:47;;;;;;;3.61;3.31;;;;;;;19.87;57.44;100410.66;;;;-56
2020/11/15 02:40:46;;;;;;;3.52;3.22;;;;;;;19.87;57.50;100407.34;;;;-56
2020/11/15 02:43:47;;;;;;;3.58;3.28;;;;;;;19.86;57.54;100414.41;;;;-56
2020/11/15 02:46:46;;;;;;;3.69;3.35;;;;;;;19.85;57.45;100410.81;;;;-55
2020/11/15 02:49:46;;;;;;;3.61;3.31;;;;;;;19.85;57.48;100412.70;;;;-55
2020/11/15 02:52:46;;;;;;;3.61;3.31;;;;;;;19.84;57.48;100414.66;;;;-56
2020/11/15 02:55:47;;;;;;;3.48;3.18;;;;;;;19.83;57.49;100419.44;;;;-55
2020/11/15 02:58:46;;;;;;;3.50;3.20;;;;;;;19.82;57.50;100414.48;;;;-56
2020/11/15 03:01:46;;;;;;;3.67;3.37;;;;;;;19.81;57.52;100416.33;;;;-56
2020/11/15 03:04:46;;;;;;;3.64;3.16;;;;;;;19.81;57.47;100417.47;;;;-56
2020/11/15 03:07:46;;;;;;;3.59;3.29;;;;;;;19.80;57.46;100417.80;;;;-56
2020/11/15 03:10:46;;;;;;;3.88;3.53;;;;;;;19.80;57.45;100409.36;;;;-56
2020/11/15 03:13:47;;;;;;;3.86;3.50;;;;;;;19.79;57.54;100409.82;;;;-56
2020/11/15 03:16:46;;;;;;;3.62;3.32;;;;;;;19.79;57.50;100418.03;;;;-55
2020/11/15 03:19:46;;;;;;;3.66;3.35;;;;;;;19.77;57.46;100415.26;;;;-56
2020/11/15 03:22:46;;;;;;;3.67;3.37;;;;;;;19.77;57.46;100410.05;;;;-56
2020/11/15 03:25:46;;;;;;;3.58;3.27;;;;;;;19.76;57.44;100406.89;;;;-56
2020/11/15 03:28:46;;;;;;;3.52;3.22;;;;;;;19.75;57.49;100401.51;;;;-56
2020/11/15 03:31:46;;;;;;;3.59;3.29;;;;;;;19.75;57.43;100410.94;;;;-56
2020/11/15 03:34:46;;;;;;;3.91;3.51;;;;;;;19.74;57.49;100398.59;;;;-56
2020/11/15 03:37:46;;;;;;;3.55;3.25;;;;;;;19.73;57.40;100405.97;;;;-56
2020/11/15 03:40:47;;;;;;;3.60;3.30;;;;;;;19.73;57.52;100407.27;;;;-56
2020/11/15 03:43:47;;;;;;;3.49;3.19;;;;;;;19.72;57.47;100399.31;;;;-55
2020/11/15 03:46:46;;;;;;;3.53;3.23;;;;;;;19.72;57.45;100401.02;;;;-56
2020/11/15 03:49:46;;;;;;;3.45;3.15;;;;;;;19.70;57.54;100404.39;;;;-55
2020/11/15 03:52:46;;;;;;;3.67;3.37;;;;;;;19.70;57.42;100401.80;;;;-55
2020/11/15 03:55:46;;;;;;;3.59;3.27;;;;;;;19.69;57.46;100407.05;;;;-56
2020/11/15 03:58:46;;;;;;;3.61;3.31;;;;;;;19.69;57.41;100405.52;;;;-55
2020/11/15 04:01:46;;;;;;;3.84;3.49;;;;;;;19.68;57.48;100406.83;;;;-56
2020/11/15 04:04:46;;;;;;;3.49;3.19;;;;;;;19.67;57.50;100402.73;;;;-55
2020/11/15 04:07:46;;;;;;;3.30;3.00;;;;;;;19.67;57.52;100402.25;;;;-55
2020/11/15 04:10:46;;;;;;;3.54;3.24;;;;;;;19.66;57.45;100406.32;;;;-56
2020/11/15 04:13:47;;;;;;;3.61;3.11;;;;;;;19.66;57.46;100403.81;;;;-56
2020/11/15 04:16:46;;;;;;;3.43;3.13;;;;;;;19.65;57.43;100401.10;;;;-56
2020/11/15 04:19:47;;;;;;;3.45;3.15;;;;;;;19.65;57.48;100399.88;;;;-55
2020/11/15 04:22:46;;;;;;;3.56;3.26;;;;;;;19.63;57.43;100399.98;;;;-56
2020/11/15 04:25:46;;;;;;;3.81;3.41;;;;;;;19.63;57.50;100396.30;;;;-55
2020/11/15 04:28:46;;;;;;;3.79;3.20;;;;;;;19.62;57.50;100398.02;;;;-56
2020/11/15 04:31:47;;;;;;;3.63;3.33;;;;;;;19.62;57.53;100401.19;;;;-55
2020/11/15 04:34:46;;;;;;;3.67;3.37;;;;;;;19.61;57.47;100402.49;;;;-56
2020/11/15 04:37:46;;;;;;;3.44;3.14;;;;;;;19.61;57.56;100402.87;;;;-57
2020/11/15 04:40:46;;;;;;;3.53;3.23;;;;;;;19.60;57.46;100402.47;;;;-55
2020/11/15 04:43:46;;;;;;;3.40;3.10;;;;;;;19.59;57.52;100404.19;;;;-56
2020/11/15 04:46:46;;;;;;;3.84;3.30;;;;;;;19.59;57.55;100402.08;;;;-56
2020/11/15 04:49:47;;;;;;;3.44;3.14;;;;;;;19.58;57.53;100404.66;;;;-56
2020/11/15 04:52:46;;;;;;;3.51;3.21;;;;;;;19.58;57.45;100404.33;;;;-55
2020/11/15 04:55:47;;;;;;;3.42;3.12;;;;;;;19.58;57.45;100404.58;;;;-58
2020/11/15 04:58:46;;;;;;;3.32;3.03;;;;;;;19.57;57.52;100400.03;;;;-56
2020/11/15 05:01:46;;;;;;;3.97;3.29;;;;;;;19.57;57.54;100393.69;;;;-56
2020/11/15 05:04:46;;;;;;;3.37;3.08;;;;;;;19.56;57.52;100394.31;;;;-56
2020/11/15 05:07:46;;;;;;;3.36;3.06;;;;;;;19.56;57.46;100392.94;;;;-57
2020/11/15 05:10:46;;;;;;;3.25;2.97;;;;;;;19.55;57.51;100386.53;;;;-56
2020/11/15 05:13:47;;;;;;;3.33;3.03;;;;;;;19.54;57.55;100390.33;;;;-56
2020/11/15 05:16:46;;;;;;;3.67;3.37;;;;;;;19.54;57.48;100394.47;;;;-56
2020/11/15 05:19:46;;;;;;;3.45;3.13;;;;;;;19.53;57.54;100388.88;;;;-55
2020/11/15 05:22:46;;;;;;;3.23;2.96;;;;;;;19.53;57.57;100383.67;;;;-55
2020/11/15 05:25:47;;;;;;;3.43;3.13;;;;;;;19.53;57.60;100385.27;;;;-55
2020/11/15 05:28:46;;;;;;;3.43;3.13;;;;;;;19.52;57.56;100380.97;;;;-56
2020/11/15 05:31:46;;;;;;;3.34;3.04;;;;;;;19.52;57.49;100377.31;;;;-56
2020/11/15 05:34:47;;;;;;;3.37;3.07;;;;;;;19.51;57.51;100378.78;;;;-56
2020/11/15 05:37:47;;;;;;;3.24;2.94;;;;;;;19.51;57.52;100375.02;;;;-56
2020/11/15 05:40:46;;;;;;;3.41;3.11;;;;;;;19.50;57.47;100375.91;;;;-56
2020/11/15 05:43:46;;;;;;;3.19;2.97;;;;;;;19.50;57.48;100372.75;;;;-56
2020/11/15 05:46:47;;;;;;;3.25;2.95;;;;;;;19.50;57.54;100373.56;;;;-55
2020/11/15 05:49:46;;;;;;;3.43;3.13;;;;;;;19.48;57.56;100375.01;;;;-55
2020/11/15 05:52:46;;;;;;;3.09;2.87;;;;;;;19.48;57.53;100369.31;;;;-56
2020/11/15 05:55:47;;;;;;;3.29;2.99;;;;;;;19.48;57.51;100369.89;;;;-56
2020/11/15 05:58:46;;;;;;;3.31;3.01;;;;;;;19.47;57.57;100370.15;;;;-56
2020/11/15 06:01:47;;;;;;;3.30;3.00;;;;;;;19.46;57.59;100363.70;;;;-55
2020/11/15 06:04:47;;;;;;;3.25;2.95;;;;;;;19.46;57.53;100358.18;;;;-56
2020/11/15 06:07:46;;;;;;;3.31;3.01;;;;;;;19.45;57.61;100355.83;;;;-56
2020/11/15 06:10:46;;;;;;;6.28;5.43;;;;;;;19.15;54.06;100355.02;;;;-58
2020/11/15 06:13:46;;;;;;;7.15;5.97;;;;;;;18.93;53.30;100352.20;;;;-57
2020/11/15 06:16:46;;;;;;;8.20;6.37;;;;;;;18.80;53.47;100355.50;;;;-56
2020/11/15 06:19:46;;;;;;;7.92;6.47;;;;;;;18.73;53.15;100356.73;;;;-56
2020/11/15 06:22:47;;;;;;;7.13;6.43;;;;;;;18.68;53.02;100359.54;;;;-56
2020/11/15 06:25:46;;;;;;;6.96;6.07;;;;;;;18.71;53.50;100359.06;;;;-56
2020/11/15 06:28:46;;;;;;;7.78;6.51;;;;;;;18.54;52.77;100356.66;;;;-57
2020/11/15 06:31:46;;;;;;;7.44;6.49;;;;;;;18.52;52.90;100355.83;;;;-55
2020/11/15 06:34:46;;;;;;;6.84;6.16;;;;;;;18.46;52.72;100348.30;;;;-56
2020/11/15 06:37:46;;;;;;;8.07;6.47;;;;;;;18.43;52.84;100345.75;;;;-58
2020/11/15 06:40:46;;;;;;;7.78;6.27;;;;;;;18.38;52.63;100347.66;;;;-58
2020/11/15 06:43:46;;;;;;;8.12;6.69;;;;;;;18.23;52.30;100351.11;;;;-55
2020/11/15 06:46:46;;;;;;;8.61;7.05;;;;;;;18.12;52.23;100349.38;;;;-57
2020/11/15 06:49:46;;;;;;;7.70;6.59;;;;;;;17.99;52.21;100347.84;;;;-57
2020/11/15 06:52:46;;;;;;;8.25;6.68;;;;;;;17.90;52.28;100352.46;;;;-58
2020/11/15 06:55:46;;;;;;;7.45;6.64;;;;;;;17.81;52.38;100349.59;;;;-57
2020/11/15 06:58:46;;;;;;;9.45;6.95;;;;;;;17.55;52.40;100354.93;;;;-56
2020/11/15 07:01:46;;;;;;;8.00;6.52;;;;;;;17.72;52.71;100357.67;;;;-56
2020/11/15 07:04:46;;;;;;;7.37;6.59;;;;;;;17.76;52.27;100354.05;;;;-56
2020/11/15 07:07:46;;;;;;;9.27;6.33;;;;;;;17.63;52.74;100353.50;;;;-54
2020/11/15 07:10:46;;;;;;;9.32;6.12;;;;;;;17.82;53.31;100357.84;;;;-54
2020/11/15 07:13:46;;;;;;;7.89;5.87;;;;;;;17.98;53.76;100355.06;;;;-50
2020/11/15 07:16:46;;;;;;;6.98;5.19;;;;;;;18.12;54.00;100352.22;;;;-52
2020/11/15 07:19:46;;;;;;;6.24;5.22;;;;;;;18.22;54.12;100345.16;;;;-51
2020/11/15 07:22:46;;;;;;;5.95;5.20;;;;;;;18.31;54.21;100343.72;;;;-54
2020/11/15 07:25:46;;;;;;;14.05;4.87;;;;;;;18.34;54.21;100333.54;;;;-54
2020/11/15 07:28:46;;;;;;;6.23;4.93;;;;;;;18.38;54.25;100336.63;;;;-53
2020/11/15 07:31:46;;;;;;;7.01;4.56;;;;;;;18.41;54.32;100339.84;;;;-54
2020/11/15 07:34:46;;;;;;;6.02;4.65;;;;;;;18.44;54.37;100338.15;;;;-53
2020/11/15 07:37:46;;;;;;;5.75;4.47;;;;;;;18.46;54.44;100343.84;;;;-53
2020/11/15 07:40:46;;;;;;;5.89;4.72;;;;;;;18.49;54.55;100350.35;;;;-54
2020/11/15 07:43:46;;;;;;;4.71;4.16;;;;;;;18.51;54.57;100347.20;;;;-53
2020/11/15 07:46:46;;;;;;;5.08;4.46;;;;;;;18.51;54.66;100343.91;;;;-48
2020/11/15 07:49:46;;;;;;;4.72;4.24;;;;;;;18.53;54.69;100340.48;;;;-48
2020/11/15 07:52:46;;;;;;;4.86;4.33;;;;;;;18.55;54.76;100342.53;;;;-48
2020/11/15 07:55:46;;;;;;;6.41;4.16;;;;;;;18.56;54.84;100338.17;;;;-49
2020/11/15 07:58:46;;;;;;;4.99;4.37;;;;;;;18.56;54.97;100329.98;;;;-53
2020/11/15 08:01:46;;;;;;;4.73;4.29;;;;;;;18.57;54.96;100326.08;;;;-54
2020/11/15 08:04:46;;;;;;;4.42;4.02;;;;;;;18.58;54.97;100316.52;;;;-54
2020/11/15 08:07:46;;;;;;;4.42;4.02;;;;;;;18.59;55.11;100306.13;;;;-56
2020/11/15 08:10:46;;;;;;;4.62;4.02;;;;;;;18.59;55.16;100303.97;;;;-53
2020/11/15 08:13:46;;;;;;;4.64;4.21;;;;;;;18.60;55.13;100298.36;;;;-53
2020/11/15 08:16:46;;;;;;;4.43;4.03;;;;;;;18.60;55.17;100288.14;;;;-54
2020/11/15 08:19:46;;;;;;;4.79;4.22;;;;;;;18.61;55.17;100282.52;;;;-54
2020/11/15 08:22:48;;;;;;;4.35;3.95;;;;;;;18.62;55.26;100280.03;;;;-53
2020/11/15 08:25:46;;;;;;;4.45;3.89;;;;;;;18.62;55.33;100283.84;;;;-54
2020/11/15 08:28:46;;;;;;;4.47;3.96;;;;;;;18.63;55.38;100281.00;;;;-52
2020/11/15 08:31:46;;;;;;;5.23;3.65;;;;;;;18.64;55.32;100280.38;;;;-59
2020/11/15 08:34:46;;;;;;;4.41;4.01;;;;;;;18.64;55.36;100275.50;;;;-59
2020/11/15 08:37:46;;;;;;;4.07;3.67;;;;;;;18.65;55.42;100271.19;;;;-60
2020/11/15 08:40:47;;;;;;;4.67;3.97;;;;;;;18.65;55.44;100260.80;;;;-60
2020/11/15 08:43:46;;;;;;;3.97;3.57;;;;;;;18.65;55.44;100250.01;;;;-61
2020/11/15 08:46:46;;;;;;;5.29;3.73;;;;;;;18.66;55.50;100243.70;;;;-60
2020/11/15 08:49:46;;;;;;;4.16;3.76;;;;;;;18.67;55.58;100242.39;;;;-60
2020/11/15 08:52:46;;;;;;;4.42;3.91;;;;;;;18.67;55.59;100233.14;;;;-60
2020/11/15 08:55:46;;;;;;;4.28;3.70;;;;;;;18.67;55.56;100229.89;;;;-61
2020/11/15 08:58:46;;;;;;;3.95;3.57;;;;;;;18.68;55.59;100223.42;;;;-51
2020/11/15 09:01:46;;;;;;;4.41;3.96;;;;;;;18.69;55.73;100218.78;;;;-51
2020/11/15 09:04:46;;;;;;;4.19;3.79;;;;;;;18.71;56.13;100213.36;;;;-53
2020/11/15 09:07:46;;;;;;;4.25;3.84;;;;;;;18.75;56.27;100209.08;;;;-49
2020/11/15 09:10:46;;;;;;;4.95;3.75;;;;;;;18.80;56.40;100208.40;;;;-56
2020/11/15 09:13:46;;;;;;;4.09;3.69;;;;;;;18.84;56.66;100200.24;;;;-45
2020/11/15 09:16:46;;;;;;;5.15;3.58;;;;;;;18.89;56.66;100198.15;;;;-46
2020/11/15 09:19:46;;;;;;;3.85;3.55;;;;;;;18.93;56.76;100198.90;;;;-47
2020/11/15 09:22:46;;;;;;;3.91;3.56;;;;;;;18.97;56.74;100190.06;;;;-46
2020/11/15 09:25:46;;;;;;;6.53;3.41;;;;;;;19.01;57.02;100183.42;;;;-51
2020/11/15 09:28:46;;;;;;;3.87;3.51;;;;;;;19.06;57.04;100177.98;;;;-51
2020/11/15 09:31:46;;;;;;;3.63;3.30;;;;;;;19.12;57.33;100175.98;;;;-57
2020/11/15 09:34:46;;;;;;;4.21;3.23;;;;;;;19.15;56.65;100165.66;;;;-57
2020/11/15 09:37:46;;;;;;;4.37;3.31;;;;;;;19.19;56.47;100161.05;;;;-57
2020/11/15 09:40:46;;;;;;;3.53;3.23;;;;;;;19.22;56.43;100157.09;;;;-57
2020/11/15 09:43:46;;;;;;;3.70;3.31;;;;;;;19.26;56.46;100151.39;;;;-57
2020/11/15 09:46:46;;;;;;;3.80;3.44;;;;;;;19.29;56.29;100144.83;;;;-57
2020/11/15 09:49:46;;;;;;;4.07;3.29;;;;;;;19.33;56.31;100137.84;;;;-57
2020/11/15 09:52:46;;;;;;;5.30;3.37;;;;;;;19.36;56.11;100128.36;;;;-59
2020/11/15 09:55:46;;;;;;;6.17;3.01;;;;;;;19.41;56.21;100132.99;;;;-57
2020/11/15 09:58:46;;;;;;;5.59;3.21;;;;;;;19.44;56.13;100129.32;;;;-60
2020/11/15 10:01:46;;;;;;;5.66;3.33;;;;;;;19.48;56.60;100125.10;;;;-54
2020/11/15 10:04:46;;;;;;;4.95;3.18;;;;;;;19.51;56.60;100121.71;;;;-59
2020/11/15 10:07:46;;;;;;;4.81;3.24;;;;;;;19.56;56.42;100117.96;;;;-58
2020/11/15 10:10:46;;;;;;;6.29;3.17;;;;;;;19.60;56.18;100114.96;;;;-60
2020/11/15 10:13:46;;;;;;;3.94;3.04;;;;;;;19.64;56.41;100110.57;;;;-53
2020/11/15 10:16:46;;;;;;;5.39;3.23;;;;;;;19.69;55.98;100109.02;;;;-50
2020/11/15 10:19:46;;;;;;;5.35;3.23;;;;;;;19.72;56.34;100107.35;;;;-51
2020/11/15 10:22:46;;;;;;;4.45;3.24;;;;;;;19.77;56.24;100103.93;;;;-51
2020/11/15 10:25:46;;;;;;;4.64;3.35;;;;;;;19.80;56.34;100105.08;;;;-57
2020/11/15 10:28:46;;;;;;;4.00;3.27;;;;;;;19.82;56.08;100094.09;;;;-52
2020/11/15 10:31:46;;;;;;;4.10;3.20;;;;;;;19.85;56.05;100090.19;;;;-57
2020/11/15 10:34:46;;;;;;;4.41;3.26;;;;;;;19.87;56.14;100083.83;;;;-56
2020/11/15 10:37:46;;;;;;;4.26;3.37;;;;;;;19.89;56.13;100085.05;;;;-57
2020/11/15 10:40:46;;;;;;;3.63;3.29;;;;;;;19.93;56.51;100085.55;;;;-56
2020/11/15 10:43:46;;;;;;;5.14;3.19;;;;;;;19.94;55.91;100081.21;;;;-52
2020/11/15 10:46:46;;;;;;;5.44;3.11;;;;;;;20.00;56.78;100080.64;;;;-60
2020/11/15 10:49:46;;;;;;;5.21;3.38;;;;;;;20.02;56.33;100077.78;;;;-49
2020/11/15 10:52:46;;;;;;;7.33;2.95;;;;;;;20.05;56.18;100070.16;;;;-59
2020/11/15 10:55:46;;;;;;;4.48;3.26;;;;;;;20.07;56.70;100059.89;;;;-55
2020/11/15 10:58:46;;;;;;;4.21;3.17;;;;;;;20.11;56.84;100054.73;;;;-51
2020/11/15 11:01:46;;;;;;;5.67;3.51;;;;;;;20.13;56.51;100056.92;;;;-53
2020/11/15 11:04:46;;;;;;;5.05;3.25;;;;;;;20.13;56.28;100054.83;;;;-57
2020/11/15 11:07:46;;;;;;;4.85;3.05;;;;;;;20.16;56.35;100045.62;;;;-52
2020/11/15 11:10:46;;;;;;;4.09;3.03;;;;;;;20.16;56.19;100045.38;;;;-54
2020/11/15 11:13:46;;;;;;;3.24;2.94;;;;;;;20.17;56.08;100042.94;;;;-52
2020/11/15 11:16:46;;;;;;;3.51;3.02;;;;;;;20.19;56.39;100037.89;;;;-49
2020/11/15 11:19:46;;;;;;;3.59;3.13;;;;;;;20.21;56.24;100035.59;;;;-62
2020/11/15 11:22:46;;;;;;;3.77;3.30;;;;;;;20.23;56.18;100040.46;;;;-60
2020/11/15 11:25:46;;;;;;;4.05;3.11;;;;;;;20.23;56.29;100037.80;;;;-53
2020/11/15 11:28:47;;;;;;;5.74;3.21;;;;;;;20.25;56.09;100040.05;;;;-57
2020/11/15 11:31:46;;;;;;;3.26;2.96;;;;;;;20.25;56.08;100038.75;;;;-52
2020/11/15 11:34:46;;;;;;;3.97;3.01;;;;;;;20.27;56.37;100033.05;;;;-53
2020/11/15 11:37:46;;;;;;;6.37;3.00;;;;;;;20.28;56.25;100021.27;;;;-56
2020/11/15 11:40:46;;;;;;;6.17;3.05;;;;;;;20.29;56.29;100021.56;;;;-50
2020/11/15 11:43:46;;;;;;;3.89;3.15;;;;;;;20.32;56.47;100024.02;;;;-57
2020/11/15 11:46:46;;;;;;;4.57;3.21;;;;;;;20.33;56.25;100024.16;;;;-57
2020/11/15 11:49:46;;;;;;;6.15;3.15;;;;;;;20.34;56.29;100027.51;;;;-54
2020/11/15 11:52:46;;;;;;;3.69;2.96;;;;;;;20.35;56.19;100022.61;;;;-57
2020/11/15 11:55:46;;;;;;;3.59;3.19;;;;;;;20.36;56.31;100022.42;;;;-57
2020/11/15 11:58:46;;;;;;;6.14;3.21;;;;;;;20.39;56.03;100024.45;;;;-58
2020/11/15 12:01:46;;;;;;;7.36;3.03;;;;;;;20.39;55.95;100014.44;;;;-57
2020/11/15 12:04:46;;;;;;;3.47;2.87;;;;;;;20.41;55.89;100016.15;;;;-58
2020/11/15 12:07:46;;;;;;;3.44;2.87;;;;;;;20.41;55.79;100001.66;;;;-58
2020/11/15 12:10:46;;;;;;;3.03;2.72;;;;;;;20.42;55.79;99998.25;;;;-58
2020/11/15 12:13:46;;;;;;;4.63;3.11;;;;;;;20.42;55.75;99979.86;;;;-58
2020/11/15 12:16:47;;;;;;;3.67;2.87;;;;;;;20.43;55.77;99968.93;;;;-58
2020/11/15 12:19:46;;;;;;;3.21;2.73;;;;;;;20.43;55.69;99957.29;;;;-58
2020/11/15 12:22:46;;;;;;;3.15;2.68;;;;;;;20.44;55.62;99937.77;;;;-57
2020/11/15 12:25:46;;;;;;;3.66;2.95;;;;;;;20.44;55.62;99933.95;;;;-58
2020/11/15 12:28:46;;;;;;;3.07;2.77;;;;;;;20.45;55.54;99935.88;;;;-59
2020/11/15 12:31:46;;;;;;;4.19;2.76;;;;;;;20.45;55.62;99924.66;;;;-59
2020/11/15 12:34:46;;;;;;;2.97;2.59;;;;;;;20.46;55.57;99908.92;;;;-58
2020/11/15 12:37:46;;;;;;;3.93;2.70;;;;;;;20.45;55.50;99903.23;;;;-57
2020/11/15 12:40:46;;;;;;;3.39;2.83;;;;;;;20.47;55.53;99901.43;;;;-58
2020/11/15 12:43:46;;;;;;;3.25;2.73;;;;;;;20.46;55.52;99891.84;;;;-56
2020/11/15 12:46:46;;;;;;;3.07;2.74;;;;;;;20.47;55.47;99883.30;;;;-58
2020/11/15 12:49:47;;;;;;;2.96;2.65;;;;;;;20.47;55.46;99875.23;;;;-58
2020/11/15 12:52:46;;;;;;;3.72;2.67;;;;;;;20.48;55.48;99870.91;;;;-57
2020/11/15 12:55:46;;;;;;;3.04;2.71;;;;;;;20.49;55.44;99870.26;;;;-57
2020/11/15 12:58:46;;;;;;;3.71;2.70;;;;;;;20.48;55.40;99853.72;;;;-56
2020/11/15 13:01:46;;;;;;;2.99;2.66;;;;;;;20.48;55.43;99854.64;;;;-58
2020/11/15 13:04:46;;;;;;;3.20;2.75;;;;;;;20.49;55.43;99839.97;;;;-57
2020/11/15 13:07:46;;;;;;;2.89;2.47;;;;;;;20.49;55.41;99834.67;;;;-57
2020/11/15 13:10:46;;;;;;;3.89;2.58;;;;;;;20.49;55.73;99823.92;;;;-52
2020/11/15 13:13:46;;;;;;;4.55;2.80;;;;;;;20.50;55.83;99822.38;;;;-50
2020/11/15 13:16:46;;;;;;;3.65;2.67;;;;;;;20.52;56.12;99817.17;;;;-47
2020/11/15 13:19:46;;;;;;;3.32;2.56;;;;;;;20.54;56.13;99815.92;;;;-56
2020/11/15 13:22:46;;;;;;;2.83;2.54;;;;;;;20.54;56.17;99803.80;;;;-53
2020/11/15 13:25:46;;;;;;;3.05;2.40;;;;;;;20.56;56.23;99800.66;;;;-55
2020/11/15 13:28:46;;;;;;;3.51;2.58;;;;;;;20.57;56.28;99799.14;;;;-47
2020/11/15 13:31:46;;;;;;;2.87;2.46;;;;;;;20.59;56.28;99805.73;;;;-53
2020/11/15 13:34:46;;;;;;;3.08;2.50;;;;;;;20.60;56.27;99811.00;;;;-53
2020/11/15 13:37:46;;;;;;;3.05;2.60;;;;;;;20.62;56.16;99802.19;;;;-57
2020/11/15 13:40:46;;;;;;;2.73;2.45;;;;;;;20.66;56.41;99810.47;;;;-62
2020/11/15 13:43:46;;;;;;;3.17;2.49;;;;;;;20.67;56.42;99806.64;;;;-57
2020/11/15 13:46:46;;;;;;;2.88;2.49;;;;;;;20.68;56.44;99801.01;;;;-53
2020/11/15 13:49:46;;;;;;;4.92;2.60;;;;;;;20.70;56.32;99795.05;;;;-58
2020/11/15 13:52:46;;;;;;;3.89;2.39;;;;;;;20.71;56.05;99788.60;;;;-59
2020/11/15 13:55:46;;;;;;;4.46;2.51;;;;;;;20.70;55.98;99783.00;;;;-58
2020/11/15 13:58:46;;;;;;;2.77;2.52;;;;;;;20.69;55.94;99777.73;;;;-58
2020/11/15 14:01:46;;;;;;;2.48;2.28;;;;;;;20.69;55.89;99775.27;;;;-58
2020/11/15 14:04:46;;;;;;;2.63;2.43;;;;;;;20.70;55.86;99772.17;;;;-59
2020/11/15 14:07:46;;;;;;;2.77;2.49;;;;;;;20.70;55.83;99773.89;;;;-59
2020/11/15 14:10:46;;;;;;;4.15;2.41;;;;;;;20.69;55.78;99763.31;;;;-57
2020/11/15 14:13:46;;;;;;;3.20;2.46;;;;;;;20.69;55.71;99757.37;;;;-57
2020/11/15 14:16:46;;;;;;;4.03;2.45;;;;;;;20.68;55.74;99752.47;;;;-60
2020/11/15 14:19:46;;;;;;;2.73;2.43;;;;;;;20.68;55.73;99742.97;;;;-58
2020/11/15 14:22:46;;;;;;;3.09;2.48;;;;;;;20.68;55.72;99745.64;;;;-58
2020/11/15 14:25:46;;;;;;;2.53;2.25;;;;;;;20.67;55.68;99740.28;;;;-58
2020/11/15 14:28:46;;;;;;;2.50;2.30;;;;;;;20.67;55.66;99731.48;;;;-58
2020/11/15 14:31:46;;;;;;;3.37;2.41;;;;;;;20.68;55.67;99727.50;;;;-57
2020/11/15 14:34:46;;;;;;;2.45;2.25;;;;;;;20.68;55.65;99720.89;;;;-58
2020/11/15 14:37:46;;;;;;;2.55;2.35;;;;;;;20.68;55.64;99721.30;;;;-58
2020/11/15 14:40:46;;;;;;;2.49;2.29;;;;;;;20.68;55.65;99717.64;;;;-57
2020/11/15 14:43:46;;;;;;;3.67;2.47;;;;;;;20.68;55.59;99714.55;;;;-57
2020/11/15 14:46:46;;;;;;;2.27;2.07;;;;;;;20.68;55.61;99711.45;;;;-60
2020/11/15 14:49:46;;;;;;;4.45;2.33;;;;;;;20.68;55.59;99709.98;;;;-60
2020/11/15 14:52:47;;;;;;;2.89;2.19;;;;;;;20.67;55.60;99702.34;;;;-61
2020/11/15 14:55:46;;;;;;;2.54;2.12;;;;;;;20.68;55.58;99706.80;;;;-60
2020/11/15 14:58:46;;;;;;;2.73;2.28;;;;;;;20.68;55.56;99703.96;;;;-60
2020/11/15 15:01:46;;;;;;;2.43;2.23;;;;;;;20.68;55.57;99700.70;;;;-59
2020/11/15 15:04:46;;;;;;;2.28;2.08;;;;;;;20.67;55.67;99690.20;;;;-60
2020/11/15 15:07:46;;;;;;;3.02;2.30;;;;;;;20.69;55.88;99688.33;;;;-55
2020/11/15 15:10:46;;;;;;;2.89;2.30;;;;;;;20.71;56.14;99677.55;;;;-53
2020/11/15 15:13:46;;;;;;;3.42;2.35;;;;;;;20.71;56.31;99679.11;;;;-60
2020/11/15 15:16:46;;;;;;;4.78;2.20;;;;;;;20.72;56.42;99675.34;;;;-61
2020/11/15 15:19:46;;;;;;;2.83;2.30;;;;;;;20.74;56.47;99672.72;;;;-61
2020/11/15 15:22:46;;;;;;;2.90;2.17;;;;;;;20.76;56.55;99673.76;;;;-61
2020/11/15 15:25:46;;;;;;;3.69;2.23;;;;;;;20.77;56.52;99672.92;;;;-55
2020/11/15 15:28:46;;;;;;;2.95;2.26;;;;;;;20.77;56.44;99671.38;;;;-50
2020/11/15 15:31:46;;;;;;;4.09;2.32;;;;;;;20.78;56.48;99668.02;;;;-55
2020/11/15 15:34:46;;;;;;;2.38;2.10;;;;;;;20.78;56.51;99664.92;;;;-54
2020/11/15 15:37:46;;;;;;;3.10;2.20;;;;;;;20.79;56.64;99659.95;;;;-49
2020/11/15 15:40:46;;;;;;;2.97;2.12;;;;;;;20.80;56.63;99662.55;;;;-52
2020/11/15 15:43:46;;;;;;;2.37;2.17;;;;;;;20.81;56.69;99660.98;;;;-51
2020/11/15 15:46:49;;;;;;;2.29;2.09;;;;;;;20.83;56.72;99658.77;;;;-49
2020/11/15 15:49:46;;;;;;;2.11;1.98;;;;;;;20.84;56.72;99658.94;;;;-57
2020/11/15 15:52:46;;;;;;;2.26;2.06;;;;;;;20.84;56.71;99665.77;;;;-49
2020/11/15 15:55:46;;;;;;;2.41;2.21;;;;;;;20.85;56.81;99666.14;;;;-57
2020/11/15 15:58:46;;;;;;;2.33;2.13;;;;;;;20.86;56.74;99671.28;;;;-57
2020/11/15 16:01:46;;;;;;;2.34;2.14;;;;;;;20.86;56.70;99670.78;;;;-58
2020/11/15 16:04:46;;;;;;;2.30;2.01;;;;;;;20.87;56.64;99672.95;;;;-57
2020/11/15 16:07:46;;;;;;;2.45;2.20;;;;;;;20.87;57.03;99681.59;;;;-53
2020/11/15 16:10:46;;;;;;;3.65;2.08;;;;;;;20.87;56.99;99682.39;;;;-61
2020/11/15 16:13:46;;;;;;;3.07;2.07;;;;;;;20.89;56.90;99683.45;;;;-56
2020/11/15 16:16:46;;;;;;;2.29;2.09;;;;;;;20.90;56.95;99683.36;;;;-49
2020/11/15 16:19:46;;;;;;;2.68;2.01;;;;;;;20.91;56.78;99675.27;;;;-50
2020/11/15 16:22:46;;;;;;;2.45;2.13;;;;;;;20.90;56.93;99671.96;;;;-60
2020/11/15 16:25:46;;;;;;;3.09;2.11;;;;;;;20.93;56.84;99667.20;;;;-57
2020/11/15 16:28:46;;;;;;;2.25;2.03;;;;;;;20.94;56.89;99665.22;;;;-59
2020/11/15 16:31:46;;;;;;;4.13;2.28;;;;;;;20.92;56.53;99665.52;;;;-57
2020/11/15 16:34:46;;;;;;;5.53;2.39;;;;;;;20.86;55.99;99659.30;;;;-55
2020/11/15 16:37:46;;;;;;;3.37;2.62;;;;;;;20.83;55.48;99660.13;;;;-53
2020/11/15 16:40:46;;;;;;;2.65;2.34;;;;;;;20.85;56.12;99659.47;;;;-45
2020/11/15 16:43:46;;;;;;;2.71;2.22;;;;;;;20.87;56.29;99655.86;;;;-57
2020/11/15 16:46:46;;;;;;;3.17;2.49;;;;;;;20.89;56.41;99641.42;;;;-51